Carl Junction, MO (64834)

5:47 PM CDT on July 28, 2014 (GMT -0500)
Joplin Regional (KJLN) Elev 981 ft | 37.15 °N, 94.50 °W | Change Station

Current weather conditions updated 54 minutes ago

Clear
Clear
85 °F
Feels Like 84 °F
N
7
Wind Variable Wind from NNE
Gusts 20 mph

Tomorrow is forecast to be Cooler than today. Chance of late night showers tomorrow night.

Today
High -- | Low -- °F
--% Chance of Precip.
Yesterday
High -- | Low -- °F
Precip. -- in
6:19 AM 8:29 PM
Waxing Crescent, 4% visible
Pressure 30.12 in
Visibility 10.0 miles
Clouds Clear
Heat Index 84 °F
Dew Point 55 °F
Humidity 36%
Rainfall 0.00 in
Snow Depth Not available.
UV 5 out of 12
Pollen 6.60 out of 12
Air Quality Not available.
Flu Activity Not available.
METAR KJLN 282153Z 02006G17KT 10SM CLR 29/13 A3015 RMK AO2 SLP200 T02940128

More Conditions Fewer Conditions

Pressure 30.12 in
Visibility 10.0 miles
Clouds Clear
Heat Index 84 °F
Dew Point 55 °F
Humidity 36%
Rainfall 0.00 in
Snow Depth Not available.
UV 5 out of 12
Pollen 6.60 out of 12
Air Quality Not available.
Flu Activity Not available.
METAR KJLN 282153Z 02006G17KT 10SM CLR 29/13 A3015 RMK AO2 SLP200 T02940128

More Conditions Fewer Conditions

10-Day Weather Forecast

Almanac

Astronomy

Jul. 28, 2014 Rise Set
Actual Time 6:19 AM CDT 8:29 PM CDT
Civil Twilight 5:50 AM CDT 8:58 PM CDT
Nautical Twilight 5:15 AM CDT 9:33 PM CDT
Astronomical Twilight 4:36 AM CDT 10:12 PM CDT
Moon 7:58 AM CDT 9:15 PM CDT
Length of Visible Light 15h 07m
Length of Day
14h 09m
Tomorrow will be 1m 40s shorter.
Waxing Crescent, 4% of the Moon is Illuminated
Today
Waxing Crescent
Aug 3
First Quarter
Aug 10
Full
Aug 17
Last Quarter
Aug 25
New

Today's Extremes

State Highs State Lows

Community

WunderPhotos

Upload Photos

1,738,513 photos uploaded!

Nearby

Snow Depth

Station Depth Elevation
No new snow has been reported.

Earthquake Activity

City Distance Mag. Time & Date
No recent earthquake activity has been reported nearby.
Minimum magnitude displayed is 2.5.

Coastal Water Temperatures

Place Temperature
No Stations Reporting

Nearby Weather Stations

Station Location Temp. Heat Index Dew Point Humidity Wind Precip. Elev Updated Type
Mohaska, Joplin, MO 83.9 °F 83 °F 58 °F 41% NNW  at  1.0 mph 0.00 in / hr 1010 ft 5:32 PM CDT Normal
ESE Cherokee Co Kansas, Columbus, KS 88.1 °F 88 °F 61 °F 40% NW  at  9.0 mph 0.00 in / hr 951 ft 5:32 PM CDT Normal
Southwest Pittsburg, Kansas, Pittsburg, KS 85.3 °F 86 °F 63 °F 48% North  at  - - / hr 935 ft 5:35 PM CDT Normal
Frontenac, KS 84.4 °F 85 °F 63 °F 48% North  at  3.2 mph 0.00 in / hr 942 ft 5:47 PM CDT Rapid Fire
Frontenac KS, Frontenac, KS 90.8 °F 88 °F 53 °F 28% North  at  0.0 mph 0.00 in / hr 948 ft 4:35 PM CDT Rapid Fire
Frontenac Industrial Park, Frontenac, KS 84.6 °F 82 °F 22 °F 10% NW  at  6.0 mph 0.00 in / hr 965 ft 5:47 PM CDT Rapid Fire

Show More Stations Show Fewer Stations